New Wealth — VROA7 — position and weather

sailwx.info

Track history (hours):
 
Tides and Currents Weather Stations Pressure Air Temp Water Temp Dewpoint Dewpoint Depression Visibility Wind Speed Wind Dir Waves Ship Positions

New Wealth

Last reported at 2018-May-20 11:44 UTC. Time now 2018-May-21 05:16 UTC.
Position N 47°10' W 007°16'.

Type: Tanker. MMSI: 477230919.

Date/timePositionNaut miles runAvg speedWind from/ knotsBaromVisibWave heightAir tempDewpointWater temp
2018-May-20 11:44N 47°10' W 007°16'311.0
2018-May-20 11:30N 47°12' W 007°14'611.5
2018-May-20 11:00N 47°17' W 007°10'611.4
2018-May-20 10:30N 47°22' W 007°06'611.1
2018-May-20 10:00N 47°27' W 007°02'611.3
2018-May-20 09:30N 47°32' W 006°58'611.4
2018-May-20 09:00N 47°37' W 006°53'611.0
2018-May-20 08:30N 47°42' W 006°49'510.7
2018-May-20 08:00N 47°46' W 006°45'510.4
2018-May-20 07:30N 47°51' W 006°41'510.2
2018-May-20 07:00N 47°55' W 006°37'510.1
2018-May-20 06:30N 47°59' W 006°34'28 9.9
2018-May-20 03:44N 48°23' W 006°13'510.7
2018-May-20 03:18N 48°27' W 006°09'411.0
2018-May-20 02:58N 48°31' W 006°07'511.4
2018-May-20 02:30N 48°35' W 006°03'611.9
2018-May-20 02:00N 48°40' W 005°58'612.3
2018-May-20 01:30N 48°46' W 005°53'612.5
2018-May-20 01:00N 48°51' W 005°49'612.1
2018-May-20 00:30N 48°55' W 005°42'612.5
2018-May-20 00:00N 48°58' W 005°34'712.3
2018-May-19 23:27N 49°02' W 005°25'512.0
2018-May-19 23:00N 49°05' W 005°18'611.7
2018-May-19 22:30N 49°08' W 005°10'611.2
2018-May-19 22:00N 49°11' W 005°03'510.8
2018-May-19 21:30N 49°13' W 004°56'510.3
2018-May-19 20:59N 49°16' W 004°49'5 9.9
2018-May-19 20:28N 49°19' W 004°42'4 9.7
2018-May-19 20:00N 49°21' W 004°36'5 9.6
2018-May-19 19:29N 49°23' W 004°30'5 9.8
2018-May-19 18:58N 49°26' W 004°23'4111.4
2018-May-19 15:22N 49°48' W 003°29'712.9
2018-May-19 14:48N 49°51' W 003°19'512.7
2018-May-19 14:26N 49°54' W 003°13'512.3
2018-May-19 14:00N 49°57' W 003°06'611.8
2018-May-19 13:30N 49°59' W 002°58'611.3
2018-May-19 13:00N 50°00' W 002°49'510.6
2018-May-19 12:30N 50°02' W 002°41'5 9.9
2018-May-19 12:00N 50°03' W 002°34'5 9.1
2018-May-19 11:30N 50°04' W 002°27'4 8.5
2018-May-19 11:00N 50°05' W 002°21'4 8.0
2018-May-19 10:28N 50°07' W 002°14'4 7.8
2018-May-19 10:00N 50°08' W 002°09'4 7.9
2018-May-19 09:30N 50°09' W 002°03'4 8.3
2018-May-19 09:00N 50°10' W 001°57'5 9.1
2018-May-19 08:30N 50°11' W 001°50'5 9.9
2018-May-19 08:01N 50°12' W 001°42'510.9
2018-May-19 07:30N 50°14' W 001°34'611.9
2018-May-19 07:00N 50°15' W 001°25'612.9
2018-May-19 06:30N 50°17' W 001°15'713.8
2018-May-19 06:01N 50°19' W 001°05'714.3
2018-May-19 05:30N 50°21' W 000°54'714.2
2018-May-19 05:00N 50°23' W 000°43'713.9
2018-May-19 04:30N 50°25' W 000°33'713.5
2018-May-19 03:59N 50°27' W 000°22'712.8
2018-May-19 03:28N 50°29' W 000°12'612.4
2018-May-19 03:00N 50°30' W 000°04'612.0
2018-May-19 02:29N 50°32' E 000°06'511.6
2018-May-19 02:00N 50°33' E 000°14'611.0
2018-May-19 01:30N 50°35' E 000°23'510.5
2018-May-19 01:00N 50°36' E 000°31'510.0
2018-May-19 00:30N 50°38' E 000°38'5 9.9
2018-May-19 00:00N 50°41' E 000°44'5 9.9
2018-May-18 23:30N 50°44' E 000°51'510.2
2018-May-18 23:00N 50°46' E 000°58'511.0
2018-May-18 22:30N 50°49' E 001°05'1012.4
2018-May-18 21:40N 50°55' E 001°18'614.0
2018-May-18 21:14N 50°60' E 001°25'314.3
2018-May-18 21:00N 51°02' E 001°29'714.3
2018-May-18 20:31N 51°07' E 001°36'713.3
2018-May-18 20:01N 51°12' E 001°44'612.2
2018-May-18 19:30N 51°18' E 001°48'611.3
2018-May-18 19:01N 51°23' E 001°52'510.2
2018-May-18 18:31N 51°27' E 001°56'510.0
2018-May-18 18:01N 51°31' E 002°02'5 9.7
2018-May-18 17:30N 51°34' E 002°07'5 9.3
2018-May-18 17:00N 51°38' E 002°12'5 9.2
2018-May-18 16:30N 51°41' E 002°17'4 8.9
2018-May-18 16:00N 51°45' E 002°22'5 9.1
2018-May-18 15:29N 51°48' E 002°27'4 9.2
2018-May-18 15:00N 51°52' E 002°31'5 9.5
2018-May-18 14:31N 51°56' E 002°36'610.1
2018-May-18 13:57N 52°01' E 002°37'511.0
2018-May-18 13:30N 52°06' E 002°37'611.6
2018-May-18 13:00N 52°12' E 002°38'612.0
2018-May-18 12:29N 52°18' E 002°42'812.4
2018-May-18 11:50N 52°24' E 002°49'412.6
2018-May-18 11:30N 52°28' E 002°52'712.6
2018-May-18 10:58N 52°34' E 002°57'612.7
2018-May-18 10:30N 52°39' E 003°01'712.6
2018-May-18 09:55N 52°46' E 003°07'612.3
2018-May-18 09:27N 52°51' E 003°12'511.9
2018-May-18 09:00N 52°56' E 003°15'611.5
2018-May-18 08:27N 53°02' E 003°19'510.9
2018-May-18 07:59N 53°07' E 003°21'610.4
2018-May-18 07:26N 53°12' E 003°24'510.2
2018-May-18 06:59N 53°17' E 003°26'5 9.8
2018-May-18 06:26N 53°22' E 003°29'30 9.8
2018-May-18 03:20N 53°49' E 003°52'511.1
2018-May-18 02:51N 53°52' E 003°60'23910.4
2018-May-17 03:57N 57°15' E 007°43'10 9.7
2018-May-17 02:57N 57°20' E 007°58'510.2
2018-May-17 02:28N 57°23' E 008°05'510.2
2018-May-17 02:00N 57°26' E 008°12'510.6
2018-May-17 01:30N 57°29' E 008°21'510.6
2018-May-17 01:00N 57°32' E 008°29'510.6
2018-May-17 00:30N 57°35' E 008°37'510.6
2018-May-17 00:00N 57°37' E 008°45'510.6
2018-May-16 23:30N 57°40' E 008°53'510.6
2018-May-16 23:00N 57°43' E 009°01'510.5
2018-May-16 22:30N 57°47' E 009°09'510.5
2018-May-16 22:00N 57°49' E 009°18'510.5
2018-May-16 21:30N 57°52' E 009°26'510.7
2018-May-16 21:00N 57°52' E 009°36'510.6
2018-May-16 20:30N 57°52' E 009°46'510.6
2018-May-16 20:00N 57°52' E 009°56'510.4
2018-May-16 19:30N 57°52' E 010°06'510.5
2018-May-16 19:00N 57°52' E 010°16'510.5
2018-May-16 18:31N 57°52' E 010°26'510.1
2018-May-16 18:00N 57°51' E 010°35'510.2
2018-May-16 17:30N 57°49' E 010°44'5 9.4
2018-May-16 17:00N 57°47' E 010°51'4 8.6
2018-May-16 16:30N 57°43' E 010°56'611.2
2018-May-16 16:00N 57°39' E 011°04'611.4
2018-May-16 15:31N 57°35' E 011°11'611.2
2018-May-16 15:00N 57°31' E 011°19'511.0
2018-May-16 14:31N 57°28' E 011°26'611.4
2018-May-16 14:00N 57°22' E 011°30'611.5
2018-May-16 13:31N 57°17' E 011°33'611.5
2018-May-16 13:00N 57°11' E 011°36'611.4
2018-May-16 12:31N 57°06' E 011°40'611.3
2018-May-16 12:00N 57°01' E 011°44'611.2
2018-May-16 11:30N 56°55' E 011°48'611.2
2018-May-16 11:01N 56°50' E 011°51'510.8
2018-May-16 10:31N 56°45' E 011°53'510.9
2018-May-16 10:01N 56°40' E 011°48'610.8
2018-May-16 09:30N 56°35' E 011°43'510.6
2018-May-16 09:00N 56°31' E 011°38'510.5
2018-May-16 08:30N 56°26' E 011°34'510.8
2018-May-16 08:00N 56°22' E 011°29'611.1
2018-May-16 07:30N 56°17' E 011°24'611.2
2018-May-16 07:00N 56°12' E 011°18'510.9
2018-May-16 06:30N 56°08' E 011°12'611.2
2018-May-16 06:00N 56°03' E 011°07'610.9
2018-May-16 05:28N 55°58' E 011°02'511.2
2018-May-16 05:00N 55°54' E 010°56'611.2
2018-May-16 04:30N 55°50' E 010°50'911.1
2018-May-16 03:42N 55°41' E 010°47'310.8
2018-May-16 03:27N 55°38' E 010°47'811.3
2018-May-16 02:44N 55°31' E 010°53'211.1
2018-May-16 02:31N 55°29' E 010°55'510.5
2018-May-16 02:00N 55°24' E 011°00'510.6
2018-May-16 01:30N 55°19' E 011°03'510.7
2018-May-16 01:01N 55°14' E 011°06'5 9.8
2018-May-16 00:31N 55°10' E 011°01'510.4
2018-May-16 00:00N 55°05' E 010°59'611.3
2018-May-15 23:30N 54°59' E 010°59'611.3
2018-May-15 23:00N 54°55' E 010°52'612.2
2018-May-15 22:31N 54°49' E 010°50'611.9
2018-May-15 22:00N 54°44' E 010°47'510.3
2018-May-15 21:31N 54°39' E 010°51'611.9
2018-May-15 21:00N 54°36' E 011°00'611.9
2018-May-15 20:31N 54°36' E 011°10'611.3
2018-May-15 20:01N 54°34' E 011°19'612.1
2018-May-15 19:30N 54°31' E 011°29'611.9
2018-May-15 19:01N 54°29' E 011°38'611.8
2018-May-15 18:30N 54°27' E 011°48'5 9.8
2018-May-15 18:00N 54°25' E 011°55'5 9.8
2018-May-15 17:31N 54°20' E 011°57'3 4.2
2018-May-15 16:53N 54°18' E 011°57'1 1.2
2018-May-15 16:03N 54°17' E 011°58'5 4.9
2018-May-15 15:00N 54°13' E 012°04'2 4.8
2018-May-15 14:30N 54°11' E 012°06'2 3.0
2018-May-15 14:00N 54°10' E 012°07'1 0.3
2018-May-15 11:54N 54°09' E 012°07'0 0.0
2018-May-15 11:30N 54°09' E 012°07'0 0.0
2018-May-15 11:00N 54°09' E 012°07'0 0.0
2018-May-15 10:30N 54°09' E 012°07'0 0.0
2018-May-15 09:06N 54°09' E 012°07'0 0.0
2018-May-15 08:57N 54°09' E 012°07'0 0.0
2018-May-15 08:30N 54°09' E 012°07'0 0.0
2018-May-15 08:00N 54°09' E 012°07'0 0.0
2018-May-15 07:27N 54°09' E 012°07'0 0.0
2018-May-15 07:00N 54°09' E 012°07'0 0.0
2018-May-15 06:27N 54°09' E 012°07'0 0.0
2018-May-15 06:00N 54°09' E 012°07'0 0.0
2018-May-15 05:30N 54°09' E 012°07'0 0.0
2018-May-15 05:00N 54°09' E 012°07'0 0.0
2018-May-15 04:30N 54°09' E 012°07'0 0.0
2018-May-15 04:00N 54°09' E 012°07'0 0.0
2018-May-15 03:30N 54°09' E 012°07'0 0.0
2018-May-15 03:00N 54°09' E 012°07'0 0.0
2018-May-15 02:30N 54°09' E 012°07'0 0.0
2018-May-15 02:00N 54°09' E 012°07'0 0.0
2018-May-15 01:30N 54°09' E 012°07'0 0.0
2018-May-15 00:48N 54°09' E 012°07'0 0.0
2018-May-15 00:30N 54°09' E 012°07'0 0.0
2018-May-14 23:54N 54°09' E 012°07'0 0.0
2018-May-14 23:30N 54°09' E 012°07'0 0.0
2018-May-14 23:00N 54°09' E 012°07'0 0.0
2018-May-14 22:30N 54°09' E 012°07'0 0.0
2018-May-14 22:00N 54°09' E 012°07'0 0.0
2018-May-14 21:30N 54°09' E 012°07'0 0.0
2018-May-14 21:00N 54°09' E 012°07'0 0.0
2018-May-14 20:30N 54°09' E 012°07'0 0.0
2018-May-14 19:57N 54°09' E 012°07'0 0.0
2018-May-14 19:30N 54°09' E 012°07'0 0.0
2018-May-14 19:00N 54°09' E 012°07'0 0.0
2018-May-14 18:30N 54°09' E 012°07'0 0.0
2018-May-14 17:57N 54°09' E 012°07'0 0.0
2018-May-14 17:30N 54°09' E 012°07'0 0.0
2018-May-14 17:00N 54°09' E 012°07'0 0.0
2018-May-14 16:30N 54°09' E 012°07'0 0.0
2018-May-14 16:00N 54°09' E 012°07'0 0.0
2018-May-14 15:27N 54°09' E 012°07'0 0.0
2018-May-14 15:00N 54°09' E 012°07'0 0.0
2018-May-14 14:27N 54°09' E 012°07'0 0.0
2018-May-14 13:57N 54°09' E 012°07'0 0.0
2018-May-14 13:03N 54°09' E 012°07'0 0.0
2018-May-14 12:57N 54°09' E 012°07'0 0.0
2018-May-14 12:30N 54°09' E 012°07'0 0.0
2018-May-14 11:54N 54°09' E 012°07'0 0.0
2018-May-14 11:30N 54°09' E 012°07'0 0.0
2018-May-14 11:00N 54°09' E 012°07'0 0.0
2018-May-14 10:27N 54°09' E 012°07'0 0.0
2018-May-14 10:00N 54°09' E 012°07'0 0.0
2018-May-14 09:30N 54°09' E 012°07'0 0.0
2018-May-14 09:00N 54°09' E 012°07'0 0.0
2018-May-14 08:27N 54°09' E 012°07'0 0.0
2018-May-14 08:00N 54°09' E 012°07'0 0.0
2018-May-14 07:30N 54°09' E 012°07'0 0.0
2018-May-14 07:00N 54°09' E 012°07'0 0.0
2018-May-14 06:30N 54°09' E 012°07'0 0.0
2018-May-14 06:00N 54°09' E 012°07'0 0.0
2018-May-14 05:30N 54°09' E 012°07'0 0.0
2018-May-14 05:00N 54°09' E 012°07'0 0.0
2018-May-14 04:30N 54°09' E 012°07'0 0.0
2018-May-14 04:00N 54°09' E 012°07'0 0.0
2018-May-14 03:30N 54°09' E 012°07'0 0.0
2018-May-14 03:00N 54°09' E 012°07'0 0.0
2018-May-14 02:30N 54°09' E 012°07'0 0.0
2018-May-14 02:00N 54°09' E 012°07'0 0.0
2018-May-14 01:30N 54°09' E 012°07'0 0.0
2018-May-14 00:57N 54°09' E 012°07'0 0.0
2018-May-14 00:30N 54°09' E 012°07'0 0.0
2018-May-13 23:57N 54°09' E 012°07'0 0.0
2018-May-13 23:30N 54°09' E 012°07'0 0.0
2018-May-13 23:00N 54°09' E 012°07'0 0.0
2018-May-13 22:27N 54°09' E 012°07'0 0.0
2018-May-13 21:57N 54°09' E 012°07'0 0.0
2018-May-13 21:30N 54°09' E 012°07'0 0.0
2018-May-13 20:54N 54°09' E 012°07'0 0.0
2018-May-13 20:30N 54°09' E 012°07'0 0.0
2018-May-13 20:00N 54°09' E 012°07'0 0.0
2018-May-13 19:30N 54°09' E 012°07'0 0.0
2018-May-13 19:00N 54°09' E 012°07'0 0.0
2018-May-13 18:24N 54°09' E 012°07'0 0.0
2018-May-13 17:12N 54°09' E 012°07'0 0.0
2018-May-13 17:00N 54°09' E 012°07'0 0.0
2018-May-13 16:30N 54°09' E 012°07'0 0.0
2018-May-13 16:00N 54°09' E 012°07'0 0.0
2018-May-13 15:30N 54°09' E 012°07'0 0.0
2018-May-13 15:00N 54°09' E 012°07'0 0.0
2018-May-13 14:27N 54°09' E 012°07'0 0.0
2018-May-13 13:12N 54°09' E 012°07'0 0.0
2018-May-13 12:48N 54°09' E 012°07'0 0.0
2018-May-13 12:27N 54°09' E 012°07'0 0.0
2018-May-13 12:00N 54°09' E 012°07'0 0.0
2018-May-13 11:30N 54°09' E 012°07'0 0.0
2018-May-13 11:00N 54°09' E 012°07'0 0.0
2018-May-13 10:30N 54°09' E 012°07'0 0.0
2018-May-13 10:00N 54°09' E 012°07'0 0.0
2018-May-13 09:30N 54°09' E 012°07'0 0.0
2018-May-13 08:57N 54°09' E 012°07'0 0.0
2018-May-13 08:30N 54°09' E 012°07'0 0.0
2018-May-13 08:00N 54°09' E 012°07'0 0.0
2018-May-13 07:24N 54°09' E 012°07'0 0.0
2018-May-13 06:57N 54°09' E 012°07'0 0.0
2018-May-13 04:57N 54°09' E 012°07'0 0.0
2018-May-13 04:30N 54°09' E 012°07'0 0.0
2018-May-13 04:00N 54°09' E 012°07'0 0.0
2018-May-13 03:30N 54°09' E 012°07'0 0.0
2018-May-13 01:51N 54°09' E 012°07'0 0.0
2018-May-13 01:30N 54°09' E 012°07'0 0.0
2018-May-13 00:54N 54°09' E 012°07'0 0.0
2018-May-13 00:30N 54°09' E 012°07'0 0.0
2018-May-13 00:00N 54°09' E 012°07'0 0.0
2018-May-12 23:30N 54°09' E 012°07'0 0.0
2018-May-12 23:00N 54°09' E 012°07'0 0.0
2018-May-12 22:30N 54°09' E 012°07'0 0.0
2018-May-12 22:00N 54°09' E 012°07'0 0.0
2018-May-12 21:30N 54°09' E 012°07'0 0.0
2018-May-12 21:00N 54°09' E 012°07'0 0.0
2018-May-12 20:30N 54°09' E 012°07'0 0.0
2018-May-12 20:00N 54°09' E 012°07'0 0.0
2018-May-12 19:27N 54°09' E 012°07'0 0.0
2018-May-12 19:00N 54°09' E 012°07'0 0.0
2018-May-12 18:30N 54°09' E 012°07'0 0.0
2018-May-12 17:57N 54°09' E 012°07'0 0.0
2018-May-12 17:27N 54°09' E 012°07'0 0.0
2018-May-12 16:48N 54°09' E 012°07'0 0.0
2018-May-12 16:18N 54°09' E 012°07'0 0.0
2018-May-12 15:54N 54°09' E 012°07'0 0.0
2018-May-12 15:21N 54°09' E 012°07'0 0.0
2018-May-12 14:15N 54°09' E 012°07'0 0.0
2018-May-12 13:54N 54°09' E 012°07'0 0.0
2018-May-12 13:27N 54°09' E 012°07'0 0.0
2018-May-12 12:54N 54°09' E 012°07'0 0.0
2018-May-12 12:24N 54°09' E 012°07'0 0.0
2018-May-12 10:54N 54°09' E 012°07'0 0.0
2018-May-12 10:27N 54°09' E 012°07'0 0.0
2018-May-12 10:00N 54°09' E 012°07'0 0.0
2018-May-12 09:30N 54°09' E 012°07'0 0.0
2018-May-12 09:00N 54°09' E 012°07'0 0.0
2018-May-12 08:30N 54°09' E 012°07'0 0.0
2018-May-12 08:00N 54°09' E 012°07'0 0.0
2018-May-12 07:30N 54°09' E 012°07'0 0.0
2018-May-12 07:00N 54°09' E 012°07'0 0.0
2018-May-12 06:30N 54°09' E 012°07'0 0.0
2018-May-12 06:00N 54°09' E 012°07'0 0.0
2018-May-12 05:30N 54°09' E 012°07'0 0.0
2018-May-12 05:00N 54°09' E 012°07'0 0.0
2018-May-12 04:30N 54°09' E 012°07'0 0.0
2018-May-12 03:57N 54°09' E 012°07'0 0.0
2018-May-12 03:30N 54°09' E 012°07'0 0.0
2018-May-12 03:00N 54°09' E 012°07'0 0.0
2018-May-12 02:30N 54°09' E 012°07'0 0.0
2018-May-12 02:00N 54°09' E 012°07'0 0.0
2018-May-12 01:30N 54°09' E 012°07'0 0.0
2018-May-12 01:00N 54°09' E 012°07'0 0.0
2018-May-12 00:30N 54°09' E 012°07'0 0.0
2018-May-12 00:00N 54°09' E 012°07'0 0.0
2018-May-11 23:24N 54°09' E 012°07'0 0.0
2018-May-11 22:54N 54°09' E 012°07'0 0.0
2018-May-11 22:30N 54°09' E 012°07'0 0.0
2018-May-11 21:54N 54°09' E 012°07'0 0.0
2018-May-11 21:30N 54°09' E 012°07'0 0.0
2018-May-11 21:00N 54°09' E 012°07'0 0.0
2018-May-11 20:30N 54°09' E 012°07'0 0.0
2018-May-11 19:39N 54°09' E 012°07'0 0.0
2018-May-11 19:27N 54°09' E 012°07'0 0.0
2018-May-11 18:51N 54°09' E 012°07'0 0.0
2018-May-11 18:30N 54°09' E 012°07'0 0.0
2018-May-11 15:54N 54°09' E 012°07'0 0.0
2018-May-11 15:27N 54°09' E 012°07'0 0.0
2018-May-11 14:57N 54°09' E 012°07'0 0.0
2018-May-11 14:24N 54°09' E 012°07'0 0.0
2018-May-11 14:00N 54°09' E 012°07'0 0.0
2018-May-11 13:18N 54°09' E 012°07'0 0.0
2018-May-11 13:00N 54°09' E 012°07'0 0.0
2018-May-11 11:27N 54°09' E 012°07'0 0.0
2018-May-11 11:00N 54°09' E 012°07'0 0.0
2018-May-11 10:30N 54°09' E 012°07'0 0.0
2018-May-11 09:57N 54°09' E 012°07'0 0.0
2018-May-11 09:30N 54°09' E 012°07'0 0.0
2018-May-11 09:00N 54°09' E 012°07'0 0.0
2018-May-11 06:54N 54°09' E 012°07'0 0.0
2018-May-11 06:24N 54°09' E 012°07'0 0.0
2018-May-11 05:54N 54°09' E 012°07'0 0.0
2018-May-11 05:30N 54°09' E 012°07'0 0.0
2018-May-11 04:30N 54°09' E 012°07'0 0.0
2018-May-11 03:51N 54°09' E 012°07'0 0.0
2018-May-11 02:12N 54°09' E 012°07'0 0.0
2018-May-11 01:57N 54°09' E 012°07'0 0.0
2018-May-11 00:12N 54°09' E 012°07'0 0.0
2018-May-10 23:57N 54°09' E 012°07'0 0.0
2018-May-10 22:36N 54°09' E 012°07'0 0.0
2018-May-10 22:30N 54°09' E 012°07'0 0.0
2018-May-10 20:51N 54°09' E 012°07'0 0.0
2018-May-10 20:27N 54°09' E 012°07'0 0.0
2018-May-10 20:00N 54°09' E 012°07'0 0.0
2018-May-10 18:45N 54°09' E 012°07'0 0.0
2018-May-10 17:57N 54°09' E 012°07'0 0.0
2018-May-10 16:54N 54°09' E 012°07'0 0.0
2018-May-10 16:24N 54°09' E 012°07'0 0.0
2018-May-10 16:00N 54°09' E 012°07'0 0.0
2018-May-10 15:21N 54°09' E 012°07'0 0.0
2018-May-10 15:00N 54°09' E 012°07'0 0.0
2018-May-10 13:39N 54°09' E 012°07'0 0.0
2018-May-10 13:30N 54°09' E 012°07'0 0.0
2018-May-10 12:54N 54°09' E 012°07'0 0.0
2018-May-10 12:27N 54°09' E 012°07'0 0.0
2018-May-10 11:51N 54°09' E 012°07'  
Track history (hours):
 
Tides and Currents Weather Stations Pressure Air Temp Water Temp Dewpoint Dewpoint Depression Visibility Wind Speed Wind Dir Waves Ship Positions

New Wealth

Last reported at 2018-May-20 11:44 UTC. Time now 2018-May-21 05:16 UTC.
Position N 47°10' W 007°16'.

Type: Tanker. MMSI: 477230919.

Date/timePositionNaut miles runAvg speedWind from/ knotsBaromVisibWave heightAir tempDewpointWater temp
2018-May-20 11:44N 47°10' W 007°16'311.0
2018-May-20 11:30N 47°12' W 007°14'611.5
2018-May-20 11:00N 47°17' W 007°10'611.4
2018-May-20 10:30N 47°22' W 007°06'611.1
2018-May-20 10:00N 47°27' W 007°02'611.3
2018-May-20 09:30N 47°32' W 006°58'611.4
2018-May-20 09:00N 47°37' W 006°53'611.0
2018-May-20 08:30N 47°42' W 006°49'510.7
2018-May-20 08:00N 47°46' W 006°45'510.4
2018-May-20 07:30N 47°51' W 006°41'510.2
2018-May-20 07:00N 47°55' W 006°37'510.1
2018-May-20 06:30N 47°59' W 006°34'28 9.9
2018-May-20 03:44N 48°23' W 006°13'510.7
2018-May-20 03:18N 48°27' W 006°09'411.0
2018-May-20 02:58N 48°31' W 006°07'511.4
2018-May-20 02:30N 48°35' W 006°03'611.9
2018-May-20 02:00N 48°40' W 005°58'612.3
2018-May-20 01:30N 48°46' W 005°53'612.5
2018-May-20 01:00N 48°51' W 005°49'612.1
2018-May-20 00:30N 48°55' W 005°42'612.5
2018-May-20 00:00N 48°58' W 005°34'712.3
2018-May-19 23:27N 49°02' W 005°25'512.0
2018-May-19 23:00N 49°05' W 005°18'611.7
2018-May-19 22:30N 49°08' W 005°10'611.2
2018-May-19 22:00N 49°11' W 005°03'510.8
2018-May-19 21:30N 49°13' W 004°56'510.3
2018-May-19 20:59N 49°16' W 004°49'5 9.9
2018-May-19 20:28N 49°19' W 004°42'4 9.7
2018-May-19 20:00N 49°21' W 004°36'5 9.6
2018-May-19 19:29N 49°23' W 004°30'5 9.8
2018-May-19 18:58N 49°26' W 004°23'4111.4
2018-May-19 15:22N 49°48' W 003°29'712.9
2018-May-19 14:48N 49°51' W 003°19'512.7
2018-May-19 14:26N 49°54' W 003°13'512.3
2018-May-19 14:00N 49°57' W 003°06'611.8
2018-May-19 13:30N 49°59' W 002°58'611.3
2018-May-19 13:00N 50°00' W 002°49'510.6
2018-May-19 12:30N 50°02' W 002°41'5 9.9
2018-May-19 12:00N 50°03' W 002°34'5 9.1
2018-May-19 11:30N 50°04' W 002°27'4 8.5
2018-May-19 11:00N 50°05' W 002°21'4 8.0
2018-May-19 10:28N 50°07' W 002°14'4 7.8
2018-May-19 10:00N 50°08' W 002°09'4 7.9
2018-May-19 09:30N 50°09' W 002°03'4 8.3
2018-May-19 09:00N 50°10' W 001°57'5 9.1
2018-May-19 08:30N 50°11' W 001°50'5 9.9
2018-May-19 08:01N 50°12' W 001°42'510.9
2018-May-19 07:30N 50°14' W 001°34'611.9
2018-May-19 07:00N 50°15' W 001°25'612.9
2018-May-19 06:30N 50°17' W 001°15'713.8
2018-May-19 06:01N 50°19' W 001°05'714.3
2018-May-19 05:30N 50°21' W 000°54'714.2
2018-May-19 05:00N 50°23' W 000°43'713.9
2018-May-19 04:30N 50°25' W 000°33'713.5
2018-May-19 03:59N 50°27' W 000°22'712.8
2018-May-19 03:28N 50°29' W 000°12'612.4
2018-May-19 03:00N 50°30' W 000°04'612.0
2018-May-19 02:29N 50°32' E 000°06'511.6
2018-May-19 02:00N 50°33' E 000°14'611.0
2018-May-19 01:30N 50°35' E 000°23'510.5
2018-May-19 01:00N 50°36' E 000°31'510.0
2018-May-19 00:30N 50°38' E 000°38'5 9.9
2018-May-19 00:00N 50°41' E 000°44'5 9.9
2018-May-18 23:30N 50°44' E 000°51'510.2
2018-May-18 23:00N 50°46' E 000°58'511.0
2018-May-18 22:30N 50°49' E 001°05'1012.4
2018-May-18 21:40N 50°55' E 001°18'614.0
2018-May-18 21:14N 50°60' E 001°25'314.3
2018-May-18 21:00N 51°02' E 001°29'714.3
2018-May-18 20:31N 51°07' E 001°36'713.3
2018-May-18 20:01N 51°12' E 001°44'612.2
2018-May-18 19:30N 51°18' E 001°48'611.3
2018-May-18 19:01N 51°23' E 001°52'510.2
2018-May-18 18:31N 51°27' E 001°56'510.0
2018-May-18 18:01N 51°31' E 002°02'5 9.7
2018-May-18 17:30N 51°34' E 002°07'5 9.3
2018-May-18 17:00N 51°38' E 002°12'5 9.2
2018-May-18 16:30N 51°41' E 002°17'4 8.9
2018-May-18 16:00N 51°45' E 002°22'5 9.1
2018-May-18 15:29N 51°48' E 002°27'4 9.2
2018-May-18 15:00N 51°52' E 002°31'5 9.5
2018-May-18 14:31N 51°56' E 002°36'610.1
2018-May-18 13:57N 52°01' E 002°37'511.0
2018-May-18 13:30N 52°06' E 002°37'611.6
2018-May-18 13:00N 52°12' E 002°38'612.0
2018-May-18 12:29N 52°18' E 002°42'812.4
2018-May-18 11:50N 52°24' E 002°49'412.6
2018-May-18 11:30N 52°28' E 002°52'712.6
2018-May-18 10:58N 52°34' E 002°57'612.7
2018-May-18 10:30N 52°39' E 003°01'712.6
2018-May-18 09:55N 52°46' E 003°07'612.3
2018-May-18 09:27N 52°51' E 003°12'511.9
2018-May-18 09:00N 52°56' E 003°15'611.5
2018-May-18 08:27N 53°02' E 003°19'510.9
2018-May-18 07:59N 53°07' E 003°21'610.4
2018-May-18 07:26N 53°12' E 003°24'510.2
2018-May-18 06:59N 53°17' E 003°26'5 9.8
2018-May-18 06:26N 53°22' E 003°29'30 9.8
2018-May-18 03:20N 53°49' E 003°52'511.1
2018-May-18 02:51N 53°52' E 003°60'23910.4
2018-May-17 03:57N 57°15' E 007°43'10 9.7
2018-May-17 02:57N 57°20' E 007°58'510.2
2018-May-17 02:28N 57°23' E 008°05'510.2
2018-May-17 02:00N 57°26' E 008°12'510.6
2018-May-17 01:30N 57°29' E 008°21'510.6
2018-May-17 01:00N 57°32' E 008°29'510.6
2018-May-17 00:30N 57°35' E 008°37'510.6
2018-May-17 00:00N 57°37' E 008°45'510.6
2018-May-16 23:30N 57°40' E 008°53'510.6
2018-May-16 23:00N 57°43' E 009°01'510.5
2018-May-16 22:30N 57°47' E 009°09'510.5
2018-May-16 22:00N 57°49' E 009°18'510.5
2018-May-16 21:30N 57°52' E 009°26'510.7
2018-May-16 21:00N 57°52' E 009°36'510.6
2018-May-16 20:30N 57°52' E 009°46'510.6
2018-May-16 20:00N 57°52' E 009°56'510.4
2018-May-16 19:30N 57°52' E 010°06'510.5
2018-May-16 19:00N 57°52' E 010°16'510.5
2018-May-16 18:31N 57°52' E 010°26'510.1
2018-May-16 18:00N 57°51' E 010°35'510.2
2018-May-16 17:30N 57°49' E 010°44'5 9.4
2018-May-16 17:00N 57°47' E 010°51'4 8.6
2018-May-16 16:30N 57°43' E 010°56'611.2
2018-May-16 16:00N 57°39' E 011°04'611.4
2018-May-16 15:31N 57°35' E 011°11'611.2
2018-May-16 15:00N 57°31' E 011°19'511.0
2018-May-16 14:31N 57°28' E 011°26'611.4
2018-May-16 14:00N 57°22' E 011°30'611.5
2018-May-16 13:31N 57°17' E 011°33'611.5
2018-May-16 13:00N 57°11' E 011°36'611.4
2018-May-16 12:31N 57°06' E 011°40'611.3
2018-May-16 12:00N 57°01' E 011°44'611.2
2018-May-16 11:30N 56°55' E 011°48'611.2
2018-May-16 11:01N 56°50' E 011°51'510.8
2018-May-16 10:31N 56°45' E 011°53'510.9
2018-May-16 10:01N 56°40' E 011°48'610.8
2018-May-16 09:30N 56°35' E 011°43'510.6
2018-May-16 09:00N 56°31' E 011°38'510.5
2018-May-16 08:30N 56°26' E 011°34'510.8
2018-May-16 08:00N 56°22' E 011°29'611.1
2018-May-16 07:30N 56°17' E 011°24'611.2
2018-May-16 07:00N 56°12' E 011°18'510.9
2018-May-16 06:30N 56°08' E 011°12'611.2
2018-May-16 06:00N 56°03' E 011°07'610.9
2018-May-16 05:28N 55°58' E 011°02'511.2
2018-May-16 05:00N 55°54' E 010°56'611.2
2018-May-16 04:30N 55°50' E 010°50'911.1
2018-May-16 03:42N 55°41' E 010°47'310.8
2018-May-16 03:27N 55°38' E 010°47'811.3
2018-May-16 02:44N 55°31' E 010°53'211.1
2018-May-16 02:31N 55°29' E 010°55'510.5
2018-May-16 02:00N 55°24' E 011°00'510.6
2018-May-16 01:30N 55°19' E 011°03'510.7
2018-May-16 01:01N 55°14' E 011°06'5 9.8
2018-May-16 00:31N 55°10' E 011°01'510.4
2018-May-16 00:00N 55°05' E 010°59'611.3
2018-May-15 23:30N 54°59' E 010°59'611.3
2018-May-15 23:00N 54°55' E 010°52'612.2
2018-May-15 22:31N 54°49' E 010°50'611.9
2018-May-15 22:00N 54°44' E 010°47'510.3
2018-May-15 21:31N 54°39' E 010°51'611.9
2018-May-15 21:00N 54°36' E 011°00'611.9
2018-May-15 20:31N 54°36' E 011°10'611.3
2018-May-15 20:01N 54°34' E 011°19'612.1
2018-May-15 19:30N 54°31' E 011°29'611.9
2018-May-15 19:01N 54°29' E 011°38'611.8
2018-May-15 18:30N 54°27' E 011°48'5 9.8
2018-May-15 18:00N 54°25' E 011°55'5 9.8
2018-May-15 17:31N 54°20' E 011°57'3 4.2
2018-May-15 16:53N 54°18' E 011°57'1 1.2
2018-May-15 16:03N 54°17' E 011°58'5 4.9
2018-May-15 15:00N 54°13' E 012°04'2 4.8
2018-May-15 14:30N 54°11' E 012°06'2 3.0
2018-May-15 14:00N 54°10' E 012°07'1 0.3
2018-May-15 11:54N 54°09' E 012°07'0 0.0
2018-May-15 11:30N 54°09' E 012°07'0 0.0
2018-May-15 11:00N 54°09' E 012°07'0 0.0
2018-May-15 10:30N 54°09' E 012°07'0 0.0
2018-May-15 09:06N 54°09' E 012°07'0 0.0
2018-May-15 08:57N 54°09' E 012°07'0 0.0
2018-May-15 08:30N 54°09' E 012°07'0 0.0
2018-May-15 08:00N 54°09' E 012°07'0 0.0
2018-May-15 07:27N 54°09' E 012°07'0 0.0
2018-May-15 07:00N 54°09' E 012°07'0 0.0
2018-May-15 06:27N 54°09' E 012°07'0 0.0
2018-May-15 06:00N 54°09' E 012°07'0 0.0
2018-May-15 05:30N 54°09' E 012°07'0 0.0
2018-May-15 05:00N 54°09' E 012°07'0 0.0
2018-May-15 04:30N 54°09' E 012°07'0 0.0
2018-May-15 04:00N 54°09' E 012°07'0 0.0
2018-May-15 03:30N 54°09' E 012°07'0 0.0
2018-May-15 03:00N 54°09' E 012°07'0 0.0
2018-May-15 02:30N 54°09' E 012°07'0 0.0
2018-May-15 02:00N 54°09' E 012°07'0 0.0
2018-May-15 01:30N 54°09' E 012°07'0 0.0
2018-May-15 00:48N 54°09' E 012°07'0 0.0
2018-May-15 00:30N 54°09' E 012°07'0 0.0
2018-May-14 23:54N 54°09' E 012°07'0 0.0
2018-May-14 23:30N 54°09' E 012°07'0 0.0
2018-May-14 23:00N 54°09' E 012°07'0 0.0
2018-May-14 22:30N 54°09' E 012°07'0 0.0
2018-May-14 22:00N 54°09' E 012°07'0 0.0
2018-May-14 21:30N 54°09' E 012°07'0 0.0
2018-May-14 21:00N 54°09' E 012°07'0 0.0
2018-May-14 20:30N 54°09' E 012°07'0 0.0
2018-May-14 19:57N 54°09' E 012°07'0 0.0
2018-May-14 19:30N 54°09' E 012°07'0 0.0
2018-May-14 19:00N 54°09' E 012°07'0 0.0
2018-May-14 18:30N 54°09' E 012°07'0 0.0
2018-May-14 17:57N 54°09' E 012°07'0 0.0
2018-May-14 17:30N 54°09' E 012°07'0 0.0
2018-May-14 17:00N 54°09' E 012°07'0 0.0
2018-May-14 16:30N 54°09' E 012°07'0 0.0
2018-May-14 16:00N 54°09' E 012°07'0 0.0
2018-May-14 15:27N 54°09' E 012°07'0 0.0
2018-May-14 15:00N 54°09' E 012°07'0 0.0
2018-May-14 14:27N 54°09' E 012°07'0 0.0
2018-May-14 13:57N 54°09' E 012°07'0 0.0
2018-May-14 13:03N 54°09' E 012°07'0 0.0
2018-May-14 12:57N 54°09' E 012°07'0 0.0
2018-May-14 12:30N 54°09' E 012°07'0 0.0
2018-May-14 11:54N 54°09' E 012°07'0 0.0
2018-May-14 11:30N 54°09' E 012°07'0 0.0
2018-May-14 11:00N 54°09' E 012°07'0 0.0
2018-May-14 10:27N 54°09' E 012°07'0 0.0
2018-May-14 10:00N 54°09' E 012°07'0 0.0
2018-May-14 09:30N 54°09' E 012°07'0 0.0
2018-May-14 09:00N 54°09' E 012°07'0 0.0
2018-May-14 08:27N 54°09' E 012°07'0 0.0
2018-May-14 08:00N 54°09' E 012°07'0 0.0
2018-May-14 07:30N 54°09' E 012°07'0 0.0
2018-May-14 07:00N 54°09' E 012°07'0 0.0
2018-May-14 06:30N 54°09' E 012°07'0 0.0
2018-May-14 06:00N 54°09' E 012°07'0 0.0
2018-May-14 05:30N 54°09' E 012°07'0 0.0
2018-May-14 05:00N 54°09' E 012°07'0 0.0
2018-May-14 04:30N 54°09' E 012°07'0 0.0
2018-May-14 04:00N 54°09' E 012°07'0 0.0
2018-May-14 03:30N 54°09' E 012°07'0 0.0
2018-May-14 03:00N 54°09' E 012°07'0 0.0
2018-May-14 02:30N 54°09' E 012°07'0 0.0
2018-May-14 02:00N 54°09' E 012°07'0 0.0
2018-May-14 01:30N 54°09' E 012°07'0 0.0
2018-May-14 00:57N 54°09' E 012°07'0 0.0
2018-May-14 00:30N 54°09' E 012°07'0 0.0
2018-May-13 23:57N 54°09' E 012°07'0 0.0
2018-May-13 23:30N 54°09' E 012°07'0 0.0
2018-May-13 23:00N 54°09' E 012°07'0 0.0
2018-May-13 22:27N 54°09' E 012°07'0 0.0
2018-May-13 21:57N 54°09' E 012°07'0 0.0
2018-May-13 21:30N 54°09' E 012°07'0 0.0
2018-May-13 20:54N 54°09' E 012°07'0 0.0
2018-May-13 20:30N 54°09' E 012°07'0 0.0
2018-May-13 20:00N 54°09' E 012°07'0 0.0
2018-May-13 19:30N 54°09' E 012°07'0 0.0
2018-May-13 19:00N 54°09' E 012°07'0 0.0
2018-May-13 18:24N 54°09' E 012°07'0 0.0
2018-May-13 17:12N 54°09' E 012°07'0 0.0
2018-May-13 17:00N 54°09' E 012°07'0 0.0
2018-May-13 16:30N 54°09' E 012°07'0 0.0
2018-May-13 16:00N 54°09' E 012°07'0 0.0
2018-May-13 15:30N 54°09' E 012°07'0 0.0
2018-May-13 15:00N 54°09' E 012°07'0 0.0
2018-May-13 14:27N 54°09' E 012°07'0 0.0
2018-May-13 13:12N 54°09' E 012°07'0 0.0
2018-May-13 12:48N 54°09' E 012°07'0 0.0
2018-May-13 12:27N 54°09' E 012°07'0 0.0
2018-May-13 12:00N 54°09' E 012°07'0 0.0
2018-May-13 11:30N 54°09' E 012°07'0 0.0
2018-May-13 11:00N 54°09' E 012°07'0 0.0
2018-May-13 10:30N 54°09' E 012°07'0 0.0
2018-May-13 10:00N 54°09' E 012°07'0 0.0
2018-May-13 09:30N 54°09' E 012°07'0 0.0
2018-May-13 08:57N 54°09' E 012°07'0 0.0
2018-May-13 08:30N 54°09' E 012°07'0 0.0
2018-May-13 08:00N 54°09' E 012°07'0 0.0
2018-May-13 07:24N 54°09' E 012°07'0 0.0
2018-May-13 06:57N 54°09' E 012°07'0 0.0
2018-May-13 04:57N 54°09' E 012°07'0 0.0
2018-May-13 04:30N 54°09' E 012°07'0 0.0
2018-May-13 04:00N 54°09' E 012°07'0 0.0
2018-May-13 03:30N 54°09' E 012°07'0 0.0
2018-May-13 01:51N 54°09' E 012°07'0 0.0
2018-May-13 01:30N 54°09' E 012°07'0 0.0
2018-May-13 00:54N 54°09' E 012°07'0 0.0
2018-May-13 00:30N 54°09' E 012°07'0 0.0
2018-May-13 00:00N 54°09' E 012°07'0 0.0
2018-May-12 23:30N 54°09' E 012°07'0 0.0
2018-May-12 23:00N 54°09' E 012°07'0 0.0
2018-May-12 22:30N 54°09' E 012°07'0 0.0
2018-May-12 22:00N 54°09' E 012°07'0 0.0
2018-May-12 21:30N 54°09' E 012°07'0 0.0
2018-May-12 21:00N 54°09' E 012°07'0 0.0
2018-May-12 20:30N 54°09' E 012°07'0 0.0
2018-May-12 20:00N 54°09' E 012°07'0 0.0
2018-May-12 19:27N 54°09' E 012°07'0 0.0
2018-May-12 19:00N 54°09' E 012°07'0 0.0
2018-May-12 18:30N 54°09' E 012°07'0 0.0
2018-May-12 17:57N 54°09' E 012°07'0 0.0
2018-May-12 17:27N 54°09' E 012°07'0 0.0
2018-May-12 16:48N 54°09' E 012°07'0 0.0
2018-May-12 16:18N 54°09' E 012°07'0 0.0
2018-May-12 15:54N 54°09' E 012°07'0 0.0
2018-May-12 15:21N 54°09' E 012°07'0 0.0
2018-May-12 14:15N 54°09' E 012°07'0 0.0
2018-May-12 13:54N 54°09' E 012°07'0 0.0
2018-May-12 13:27N 54°09' E 012°07'0 0.0
2018-May-12 12:54N 54°09' E 012°07'0 0.0
2018-May-12 12:24N 54°09' E 012°07'0 0.0
2018-May-12 10:54N 54°09' E 012°07'0 0.0
2018-May-12 10:27N 54°09' E 012°07'0 0.0
2018-May-12 10:00N 54°09' E 012°07'0 0.0
2018-May-12 09:30N 54°09' E 012°07'0 0.0
2018-May-12 09:00N 54°09' E 012°07'0 0.0
2018-May-12 08:30N 54°09' E 012°07'0 0.0
2018-May-12 08:00N 54°09' E 012°07'0 0.0
2018-May-12 07:30N 54°09' E 012°07'0 0.0
2018-May-12 07:00N 54°09' E 012°07'0 0.0
2018-May-12 06:30N 54°09' E 012°07'0 0.0
2018-May-12 06:00N 54°09' E 012°07'0 0.0
2018-May-12 05:30N 54°09' E 012°07'0 0.0
2018-May-12 05:00N 54°09' E 012°07'0 0.0
2018-May-12 04:30N 54°09' E 012°07'0 0.0
2018-May-12 03:57N 54°09' E 012°07'0 0.0
2018-May-12 03:30N 54°09' E 012°07'0 0.0
2018-May-12 03:00N 54°09' E 012°07'0 0.0
2018-May-12 02:30N 54°09' E 012°07'0 0.0
2018-May-12 02:00N 54°09' E 012°07'0 0.0
2018-May-12 01:30N 54°09' E 012°07'0 0.0
2018-May-12 01:00N 54°09' E 012°07'0 0.0
2018-May-12 00:30N 54°09' E 012°07'0 0.0
2018-May-12 00:00N 54°09' E 012°07'0 0.0
2018-May-11 23:24N 54°09' E 012°07'0 0.0
2018-May-11 22:54N 54°09' E 012°07'0 0.0
2018-May-11 22:30N 54°09' E 012°07'0 0.0
2018-May-11 21:54N 54°09' E 012°07'0 0.0
2018-May-11 21:30N 54°09' E 012°07'0 0.0
2018-May-11 21:00N 54°09' E 012°07'0 0.0
2018-May-11 20:30N 54°09' E 012°07'0 0.0
2018-May-11 19:39N 54°09' E 012°07'0 0.0
2018-May-11 19:27N 54°09' E 012°07'0 0.0
2018-May-11 18:51N 54°09' E 012°07'0 0.0
2018-May-11 18:30N 54°09' E 012°07'0 0.0
2018-May-11 15:54N 54°09' E 012°07'0 0.0
2018-May-11 15:27N 54°09' E 012°07'0 0.0
2018-May-11 14:57N 54°09' E 012°07'0 0.0
2018-May-11 14:24N 54°09' E 012°07'0 0.0
2018-May-11 14:00N 54°09' E 012°07'0 0.0
2018-May-11 13:18N 54°09' E 012°07'0 0.0
2018-May-11 13:00N 54°09' E 012°07'0 0.0
2018-May-11 11:27N 54°09' E 012°07'0 0.0
2018-May-11 11:00N 54°09' E 012°07'0 0.0
2018-May-11 10:30N 54°09' E 012°07'0 0.0
2018-May-11 09:57N 54°09' E 012°07'0 0.0
2018-May-11 09:30N 54°09' E 012°07'0 0.0
2018-May-11 09:00N 54°09' E 012°07'0 0.0
2018-May-11 06:54N 54°09' E 012°07'0 0.0
2018-May-11 06:24N 54°09' E 012°07'0 0.0
2018-May-11 05:54N 54°09' E 012°07'0 0.0
2018-May-11 05:30N 54°09' E 012°07'0 0.0
2018-May-11 04:30N 54°09' E 012°07'0 0.0
2018-May-11 03:51N 54°09' E 012°07'0 0.0
2018-May-11 02:12N 54°09' E 012°07'0 0.0
2018-May-11 01:57N 54°09' E 012°07'0 0.0
2018-May-11 00:12N 54°09' E 012°07'0 0.0
2018-May-10 23:57N 54°09' E 012°07'0 0.0
2018-May-10 22:36N 54°09' E 012°07'0 0.0
2018-May-10 22:30N 54°09' E 012°07'0 0.0
2018-May-10 20:51N 54°09' E 012°07'0 0.0
2018-May-10 20:27N 54°09' E 012°07'0 0.0
2018-May-10 20:00N 54°09' E 012°07'0 0.0
2018-May-10 18:45N 54°09' E 012°07'0 0.0
2018-May-10 17:57N 54°09' E 012°07'0 0.0
2018-May-10 16:54N 54°09' E 012°07'0 0.0
2018-May-10 16:24N 54°09' E 012°07'0 0.0
2018-May-10 16:00N 54°09' E 012°07'0 0.0
2018-May-10 15:21N 54°09' E 012°07'0 0.0
2018-May-10 15:00N 54°09' E 012°07'0 0.0
2018-May-10 13:39N 54°09' E 012°07'0 0.0
2018-May-10 13:30N 54°09' E 012°07'0 0.0
2018-May-10 12:54N 54°09' E 012°07'0 0.0
2018-May-10 12:27N 54°09' E 012°07'0 0.0
2018-May-10 11:51N 54°09' E 012°07'  

Dump ship's entire track history